PWSweather.com
Personal Weather Stations
Station Observations
MARICOPA
Cobblestone Farms, Maricopa, AZ 85139

Cobblestone FarmsMaricopa, AZ 85139

Lat: 33.076, Lon: -112.0445

Elevation: 1148

Station Type: LaCrosse 2310/15

http://weather.azkiwis.net

Latest ConditionsUpdated 8:15:01 PM MST Friday, Apr 29, 2016
Currently Today's Max Today's Min Today's Average
Temperature 71.4°F21.9°C 82.4°F28.0°C 58.8°F14.9°C 70.4°F21.3°C
Dew Point 32.7°F0.4°C 40.4°F4.7°C 32.5°F0.3°C 36.4°F2.4°C
Winds Calm Calm 9.2 mph W14.8 kmh W - 3.5 mph 5.6 kmh
Wind Gusts -- 17.3 mph27.8 kmh - -
Humidity 24% 41% 20% 30%
Pressure 29.78 in1008.5 mb 29.89 in1012.2 mb 29.77 in1008.1 mb -
Hour Temp Dew Point Humidity Winds Wind Gusts Pressure Precip Precip Rate Daily Precip Total
08:15 PM 71.4°F21.9°C 32.7°F0.4°C 24% Calm Calm -- 29.78 in1008.5 mb - 0.00 in0.0 mm 0.00 in0.0 mm
08:00 PM 72.1°F22.3°C 33.3°F0.7°C 24% Calm Calm 1.2 mph1.9 kmh 29.78 in1008.5 mb - 0.00 in0.0 mm 0.00 in0.0 mm
07:45 PM 73.2°F22.9°C 33.2°F0.7°C 23% Calm Calm -- 29.78 in1008.5 mb - 0.00 in0.0 mm 0.00 in0.0 mm
07:30 PM 74.1°F23.4°C 33.9°F1.1°C 23% Calm Calm 1.2 mph1.9 kmh 29.77 in1008.1 mb - 0.00 in0.0 mm 0.00 in0.0 mm
07:15 PM 75.0°F23.9°C 33.6°F0.9°C 22% 3.5 mph W5.6 kmh W 10.4 mph16.7 kmh 29.77 in1008.1 mb - 0.00 in0.0 mm 0.00 in0.0 mm
07:00 PM 76.0°F24.4°C 33.3°F0.7°C 21% 3.5 mph WSW5.6 kmh WSW 8.1 mph13.0 kmh 29.78 in1008.5 mb - 0.00 in0.0 mm 0.00 in0.0 mm
06:45 PM 77.5°F25.3°C 34.5°F1.4°C 21% 4.6 mph W7.4 kmh W 9.2 mph14.8 kmh 29.77 in1008.1 mb - 0.00 in0.0 mm 0.00 in0.0 mm
06:30 PM 78.6°F25.9°C 35.4°F1.9°C 21% 6.9 mph WNW11.1 kmh WNW 6.9 mph11.1 kmh 29.78 in1008.5 mb - 0.00 in0.0 mm 0.00 in0.0 mm
06:15 PM 79.0°F26.1°C 34.5°F1.4°C 20% 4.6 mph NW7.4 kmh NW 9.2 mph14.8 kmh 29.78 in1008.5 mb - 0.00 in0.0 mm 0.00 in0.0 mm
06:00 PM 80.4°F26.9°C 35.7°F2.1°C 20% 2.3 mph W3.7 kmh W 8.1 mph13.0 kmh 29.77 in1008.1 mb - 0.00 in0.0 mm 0.00 in0.0 mm
05:45 PM 80.5°F26.9°C 36.9°F2.7°C 21% 3.5 mph W5.6 kmh W 6.9 mph11.1 kmh 29.78 in1008.5 mb - 0.00 in0.0 mm 0.00 in0.0 mm
05:30 PM 79.2°F26.2°C 35.8°F2.1°C 21% 3.5 mph WNW5.6 kmh WNW 5.8 mph9.3 kmh 29.78 in1008.5 mb - 0.00 in0.0 mm 0.00 in0.0 mm
05:15 PM 79.6°F26.4°C 36.2°F2.3°C 21% 2.3 mph WSW3.7 kmh WSW 11.5 mph18.5 kmh 29.78 in1008.5 mb - 0.00 in0.0 mm 0.00 in0.0 mm
05:00 PM 79.4°F26.3°C 36.0°F2.2°C 21% 8.1 mph W13.0 kmh W 13.8 mph22.2 kmh 29.79 in1008.8 mb - 0.00 in0.0 mm 0.00 in0.0 mm
04:45 PM 80.2°F26.8°C 36.7°F2.6°C 21% 5.8 mph WSW9.3 kmh WSW 17.3 mph27.8 kmh 29.79 in1008.8 mb - 0.00 in0.0 mm 0.00 in0.0 mm
04:30 PM 80.0°F26.7°C 36.5°F2.5°C 21% 5.8 mph W9.3 kmh W 9.2 mph14.8 kmh 29.79 in1008.8 mb - 0.00 in0.0 mm 0.00 in0.0 mm
04:15 PM 80.1°F26.7°C 35.4°F1.9°C 20% 4.6 mph W7.4 kmh W 4.6 mph7.4 kmh 29.79 in1008.8 mb - 0.00 in0.0 mm 0.00 in0.0 mm
04:00 PM 80.8°F27.1°C 35.9°F2.2°C 20% 6.9 mph NW11.1 kmh NW 6.9 mph11.1 kmh 29.80 in1009.1 mb - 0.00 in0.0 mm 0.00 in0.0 mm
03:45 PM 80.4°F26.9°C 36.9°F2.7°C 21% 5.8 mph NW9.3 kmh NW 15.0 mph24.1 kmh 29.80 in1009.1 mb - 0.00 in0.0 mm 0.00 in0.0 mm
03:30 PM 81.5°F27.5°C 36.5°F2.5°C 20% 5.8 mph W9.3 kmh W 9.2 mph14.8 kmh 29.81 in1009.5 mb - 0.00 in0.0 mm 0.00 in0.0 mm
03:15 PM 82.4°F28.0°C 37.3°F2.9°C 20% 6.9 mph WNW11.1 kmh WNW 8.1 mph13.0 kmh 29.81 in1009.5 mb - 0.00 in0.0 mm 0.00 in0.0 mm
03:00 PM 82.2°F27.9°C 38.4°F3.6°C 21% 6.9 mph W11.1 kmh W 8.1 mph13.0 kmh 29.81 in1009.5 mb - 0.00 in0.0 mm 0.00 in0.0 mm
02:45 PM 80.7°F27.1°C 35.9°F2.2°C 20% 4.6 mph NW7.4 kmh NW 11.5 mph18.5 kmh 29.82 in1009.8 mb - 0.00 in0.0 mm 0.00 in0.0 mm
02:30 PM 81.0°F27.2°C 37.3°F2.9°C 21% 5.8 mph NW9.3 kmh NW 6.9 mph11.1 kmh 29.83 in1010.2 mb - 0.00 in0.0 mm 0.00 in0.0 mm
02:15 PM 81.2°F27.3°C 37.6°F3.1°C 21% 5.8 mph WNW9.3 kmh WNW 12.7 mph20.4 kmh 29.84 in1010.5 mb - 0.00 in0.0 mm 0.00 in0.0 mm
02:00 PM 81.1°F27.3°C 37.5°F3.1°C 21% 8.1 mph W13.0 kmh W 11.5 mph18.5 kmh 29.84 in1010.5 mb - 0.00 in0.0 mm 0.00 in0.0 mm
01:45 PM 81.0°F27.2°C 38.5°F3.6°C 22% 5.8 mph NW9.3 kmh NW 9.2 mph14.8 kmh 29.85 in1010.8 mb - 0.00 in0.0 mm 0.00 in0.0 mm
01:30 PM 80.4°F26.9°C 38.1°F3.4°C 22% 8.1 mph WSW13.0 kmh WSW 13.8 mph22.2 kmh 29.85 in1010.8 mb - 0.00 in0.0 mm 0.00 in0.0 mm
01:15 PM 79.2°F26.2°C 37.1°F2.8°C 22% 5.8 mph WSW9.3 kmh WSW 11.5 mph18.5 kmh 29.86 in1011.2 mb - 0.00 in0.0 mm 0.00 in0.0 mm
01:00 PM 79.9°F26.6°C 38.8°F3.8°C 23% 4.6 mph W7.4 kmh W 11.5 mph18.5 kmh 29.86 in1011.2 mb - 0.00 in0.0 mm 0.00 in0.0 mm
12:45 PM 79.5°F26.4°C 38.5°F3.6°C 23% 9.2 mph W14.8 kmh W 15.0 mph24.1 kmh 29.87 in1011.5 mb - 0.00 in0.0 mm 0.00 in0.0 mm
12:30 PM 79.5°F26.4°C 39.6°F4.2°C 24% 6.9 mph NW11.1 kmh NW 13.8 mph22.2 kmh 29.87 in1011.5 mb - 0.00 in0.0 mm 0.00 in0.0 mm
12:15 PM 78.7°F25.9°C 38.9°F3.8°C 24% 8.1 mph W13.0 kmh W 10.4 mph16.7 kmh 29.88 in1011.9 mb - 0.00 in0.0 mm 0.00 in0.0 mm
12:00 PM 78.4°F25.8°C 38.6°F3.7°C 24% 4.6 mph W7.4 kmh W 8.1 mph13.0 kmh 29.88 in1011.9 mb - 0.00 in0.0 mm 0.00 in0.0 mm
11:45 AM 77.8°F25.4°C 39.1°F3.9°C 25% 3.5 mph WNW5.6 kmh WNW 4.6 mph7.4 kmh 29.88 in1011.9 mb - 0.00 in0.0 mm 0.00 in0.0 mm
11:30 AM 77.2°F25.1°C 39.6°F4.2°C 26% 5.8 mph W9.3 kmh W 6.9 mph11.1 kmh 29.88 in1011.9 mb - 0.00 in0.0 mm 0.00 in0.0 mm
11:15 AM 76.6°F24.8°C 39.2°F4.0°C 26% 2.3 mph WSW3.7 kmh WSW 12.7 mph20.4 kmh 29.88 in1011.9 mb - 0.00 in0.0 mm 0.00 in0.0 mm
11:00 AM 75.6°F24.2°C 40.2°F4.6°C 28% 1.2 mph SSW1.9 kmh SSW -- 29.89 in1012.2 mb - 0.00 in0.0 mm 0.00 in0.0 mm
10:45 AM 74.3°F23.5°C 40.0°F4.4°C 29% 1.2 mph WSW1.9 kmh WSW 3.5 mph5.6 kmh 29.89 in1012.2 mb - 0.00 in0.0 mm 0.00 in0.0 mm
10:30 AM 73.5°F23.1°C 39.3°F4.1°C 29% 2.3 mph NW3.7 kmh NW 5.8 mph9.3 kmh 29.89 in1012.2 mb - 0.00 in0.0 mm 0.00 in0.0 mm
10:15 AM 72.6°F22.6°C 38.5°F3.6°C 29% 3.5 mph SW5.6 kmh SW 1.2 mph1.9 kmh 29.89 in1012.2 mb - 0.00 in0.0 mm 0.00 in0.0 mm
10:00 AM 71.8°F22.1°C 40.4°F4.7°C 32% Calm Calm 2.3 mph3.7 kmh 29.89 in1012.2 mb - 0.00 in0.0 mm 0.00 in0.0 mm
09:45 AM 71.0°F21.7°C 39.6°F4.2°C 32% 4.6 mph WSW7.4 kmh WSW 4.6 mph7.4 kmh 29.89 in1012.2 mb - 0.00 in0.0 mm 0.00 in0.0 mm
09:30 AM 70.0°F21.1°C 39.5°F4.2°C 33% 3.5 mph SW5.6 kmh SW 6.9 mph11.1 kmh 29.89 in1012.2 mb - 0.00 in0.0 mm 0.00 in0.0 mm
09:15 AM 68.8°F20.4°C 39.3°F4.1°C 34% 3.5 mph WSW5.6 kmh WSW 6.9 mph11.1 kmh 29.89 in1012.2 mb - 0.00 in0.0 mm 0.00 in0.0 mm
09:00 AM 67.8°F19.9°C 39.2°F4.0°C 35% 1.2 mph W1.9 kmh W 5.8 mph9.3 kmh 29.89 in1012.2 mb - 0.00 in0.0 mm 0.00 in0.0 mm
08:45 AM 66.7°F19.3°C 38.9°F3.8°C 36% 3.5 mph W5.6 kmh W 6.9 mph11.1 kmh 29.88 in1011.9 mb - 0.00 in0.0 mm 0.00 in0.0 mm
08:30 AM 65.5°F18.6°C 38.5°F3.6°C 37% 5.8 mph W9.3 kmh W 8.1 mph13.0 kmh 29.89 in1012.2 mb - 0.00 in0.0 mm 0.00 in0.0 mm
08:15 AM 65.3°F18.5°C 38.3°F3.5°C 37% 4.6 mph W7.4 kmh W 8.1 mph13.0 kmh 29.89 in1012.2 mb - 0.00 in0.0 mm 0.00 in0.0 mm
08:00 AM 65.1°F18.4°C 38.9°F3.8°C 38% 3.5 mph W5.6 kmh W 5.8 mph9.3 kmh 29.89 in1012.2 mb - 0.00 in0.0 mm 0.00 in0.0 mm
07:45 AM 63.7°F17.6°C 38.9°F3.8°C 40% 1.2 mph W1.9 kmh W 3.5 mph5.6 kmh 29.88 in1011.9 mb - 0.00 in0.0 mm 0.00 in0.0 mm
07:30 AM 61.5°F16.4°C 37.6°F3.1°C 41% 1.2 mph WSW1.9 kmh WSW 3.5 mph5.6 kmh 29.87 in1011.5 mb - 0.00 in0.0 mm 0.00 in0.0 mm
07:15 AM 61.2°F16.2°C 37.3°F2.9°C 41% 2.3 mph SW3.7 kmh SW 6.9 mph11.1 kmh 29.87 in1011.5 mb - 0.00 in0.0 mm 0.00 in0.0 mm
07:00 AM 61.2°F16.2°C 37.3°F2.9°C 41% 5.8 mph SW9.3 kmh SW 6.9 mph11.1 kmh 29.86 in1011.2 mb - 0.00 in0.0 mm 0.00 in0.0 mm
06:45 AM 60.6°F15.9°C 36.8°F2.7°C 41% 4.6 mph SW7.4 kmh SW 6.9 mph11.1 kmh 29.86 in1011.2 mb - 0.00 in0.0 mm 0.00 in0.0 mm
06:30 AM 60.3°F15.7°C 36.5°F2.5°C 41% 4.6 mph SW7.4 kmh SW 5.8 mph9.3 kmh 29.86 in1011.2 mb - 0.00 in0.0 mm 0.00 in0.0 mm
06:15 AM 59.9°F15.5°C 36.1°F2.3°C 41% Calm Calm 3.5 mph5.6 kmh 29.85 in1010.8 mb - 0.00 in0.0 mm 0.00 in0.0 mm
06:00 AM 60.1°F15.6°C 36.3°F2.4°C 41% 2.3 mph WSW3.7 kmh WSW 6.9 mph11.1 kmh 29.84 in1010.5 mb - 0.00 in0.0 mm 0.00 in0.0 mm
05:45 AM 60.1°F15.6°C 36.3°F2.4°C 41% 2.3 mph WSW3.7 kmh WSW 5.8 mph9.3 kmh 29.83 in1010.2 mb - 0.00 in0.0 mm 0.00 in0.0 mm
05:30 AM 60.4°F15.8°C 36.0°F2.2°C 40% 2.3 mph W3.7 kmh W 5.8 mph9.3 kmh 29.83 in1010.2 mb - 0.00 in0.0 mm 0.00 in0.0 mm
05:15 AM 60.6°F15.9°C 36.1°F2.3°C 40% 1.2 mph W1.9 kmh W 3.5 mph5.6 kmh 29.82 in1009.8 mb - 0.00 in0.0 mm 0.00 in0.0 mm
05:00 AM 61.0°F16.1°C 35.8°F2.1°C 39% 1.2 mph W1.9 kmh W 4.6 mph7.4 kmh 29.82 in1009.8 mb - 0.00 in0.0 mm 0.00 in0.0 mm
04:45 AM 61.0°F16.1°C 35.8°F2.1°C 39% 5.8 mph W9.3 kmh W 8.1 mph13.0 kmh 29.82 in1009.8 mb - 0.00 in0.0 mm 0.00 in0.0 mm
04:30 AM 61.0°F16.1°C 35.8°F2.1°C 39% 6.9 mph WNW11.1 kmh WNW 10.4 mph16.7 kmh 29.82 in1009.8 mb - 0.00 in0.0 mm 0.00 in0.0 mm
04:15 AM 60.6°F15.9°C 35.5°F1.9°C 39% 1.2 mph W1.9 kmh W 4.6 mph7.4 kmh 29.81 in1009.5 mb - 0.00 in0.0 mm 0.00 in0.0 mm
04:00 AM 60.6°F15.9°C 35.5°F1.9°C 39% 1.2 mph W1.9 kmh W 2.3 mph3.7 kmh 29.81 in1009.5 mb - 0.00 in0.0 mm 0.00 in0.0 mm
03:45 AM 61.2°F16.2°C 35.3°F1.8°C 38% 1.2 mph W1.9 kmh W 3.5 mph5.6 kmh 29.81 in1009.5 mb - 0.00 in0.0 mm 0.00 in0.0 mm
03:30 AM 61.5°F16.4°C 35.0°F1.7°C 37% 4.6 mph W7.4 kmh W 8.1 mph13.0 kmh 29.81 in1009.5 mb - 0.00 in0.0 mm 0.00 in0.0 mm
03:15 AM 61.5°F16.4°C 35.0°F1.7°C 37% 1.2 mph WSW1.9 kmh WSW 5.8 mph9.3 kmh 29.81 in1009.5 mb - 0.00 in0.0 mm 0.00 in0.0 mm
03:00 AM 61.5°F16.4°C 35.0°F1.7°C 37% 3.5 mph W5.6 kmh W 9.2 mph14.8 kmh 29.81 in1009.5 mb - 0.00 in0.0 mm 0.00 in0.0 mm
02:45 AM 61.0°F16.1°C 34.5°F1.4°C 37% 3.5 mph WSW5.6 kmh WSW 5.8 mph9.3 kmh 29.81 in1009.5 mb - 0.00 in0.0 mm 0.00 in0.0 mm
02:30 AM 60.6°F15.9°C 34.2°F1.2°C 37% 1.2 mph WNW1.9 kmh WNW 1.2 mph1.9 kmh 29.81 in1009.5 mb - 0.00 in0.0 mm 0.00 in0.0 mm
02:15 AM 59.5°F15.3°C 33.9°F1.1°C 38% 1.2 mph W1.9 kmh W 2.3 mph3.7 kmh 29.81 in1009.5 mb - 0.00 in0.0 mm 0.00 in0.0 mm
02:00 AM 58.8°F14.9°C 33.2°F0.7°C 38% Calm Calm -- 29.81 in1009.5 mb - 0.00 in0.0 mm 0.00 in0.0 mm
01:45 AM 58.8°F14.9°C 32.6°F0.3°C 37% Calm Calm -- 29.81 in1009.5 mb - 0.00 in0.0 mm 0.00 in0.0 mm
01:30 AM 59.7°F15.4°C 32.7°F0.4°C 36% Calm Calm -- 29.81 in1009.5 mb - 0.00 in0.0 mm 0.00 in0.0 mm
01:15 AM 60.4°F15.8°C 32.6°F0.3°C 35% Calm Calm -- 29.81 in1009.5 mb - 0.00 in0.0 mm 0.00 in0.0 mm
01:00 AM 61.2°F16.2°C 32.5°F0.3°C 34% Calm Calm 2.3 mph3.7 kmh 29.81 in1009.5 mb - 0.00 in0.0 mm 0.00 in0.0 mm
12:45 AM 61.5°F16.4°C 32.9°F0.5°C 34% Calm Calm 3.5 mph5.6 kmh 29.81 in1009.5 mb - 0.00 in0.0 mm 0.00 in0.0 mm
12:30 AM 61.5°F16.4°C 32.9°F0.5°C 34% 2.3 mph W3.7 kmh W 3.5 mph5.6 kmh 29.80 in1009.1 mb - 0.00 in0.0 mm 0.00 in0.0 mm
12:15 AM 61.9°F16.6°C 33.2°F0.7°C 34% 1.2 mph WSW1.9 kmh WSW 1.2 mph1.9 kmh 29.81 in1009.5 mb - 0.00 in0.0 mm 0.00 in0.0 mm
12:00 AM 61.8°F16.6°C 33.1°F0.6°C 34% 5.8 mph WNW9.3 kmh WNW 9.2 mph14.8 kmh 29.80 in1009.1 mb - 0.00 in0.0 mm 0.00 in0.0 mm